Time;durP1;ratioP1;P1;durP2;ratioP2;P2;SDS_P1;SDS_P2;PMS_P1;PMS_P2;Temp;Humidity;BMP_temperature;BMP_pressure;BME280_temperature;BME280_humidity;BME280_pressure;Samples;Min_cycle;Max_cycle;Signal;HPM_P1;HPM_P2
2022/01/29 00:00:17;;;;;;;36.25;19.25;;;2.90;99.90;;;;;;4990742;28;20054;-68
2022/01/29 00:02:44;;;;;;;34.13;18.35;;;2.90;99.90;;;;;;4990379;28;20797;-68
2022/01/29 00:05:12;;;;;;;39.10;18.52;;;2.80;99.90;;;;;;4990655;28;20138;-69
2022/01/29 00:07:42;;;;;;;34.50;18.55;;;2.80;99.90;;;;;;4988331;28;20042;-66
2022/01/29 00:10:13;;;;;;;38.40;19.83;;;2.80;99.90;;;;;;4990301;28;20047;-68
2022/01/29 00:12:41;;;;;;;;;;;2.90;99.90;;;;;;4989972;28;20039;-69
2022/01/29 00:15:11;;;;;;;37.75;17.42;;;2.90;99.90;;;;;;5004969;28;19926;-66
2022/01/29 00:17:38;;;;;;;39.25;19.63;;;2.90;99.90;;;;;;4988985;28;20137;-69
2022/01/29 00:20:07;;;;;;;37.75;18.15;;;3.00;99.90;;;;;;4990461;28;20077;-68
2022/01/29 00:22:35;;;;;;;38.95;17.58;;;3.00;99.90;;;;;;4989798;28;20057;-67
2022/01/29 00:25:03;;;;;;;39.42;18.30;;;3.00;99.90;;;;;;4990167;28;20057;-68
2022/01/29 00:27:34;;;;;;;40.60;18.70;;;2.90;99.90;;;;;;4989013;28;20046;-67
2022/01/29 00:30:13;;;;;;;40.67;18.20;;;2.90;99.90;;;;;;4980096;28;20118;-68
2022/01/29 00:32:40;;;;;;;32.35;17.23;;;2.90;99.90;;;;;;4987974;28;20034;-68
2022/01/29 00:35:08;;;;;;;41.30;18.35;;;2.90;99.90;;;;;;4979546;28;20042;-68
2022/01/29 00:37:36;;;;;;;38.97;17.95;;;3.00;99.90;;;;;;4989479;28;20061;-68
2022/01/29 00:40:05;;;;;;;32.88;17.20;;;3.00;99.90;;;;;;5003453;28;20520;-67
2022/01/29 00:42:33;;;;;;;34.15;17.88;;;3.10;99.90;;;;;;4989170;28;20052;-68
2022/01/29 00:45:01;;;;;;;35.00;17.33;;;3.00;99.90;;;;;;4990360;28;20108;-68
2022/01/29 00:47:28;;;;;;;36.35;17.80;;;3.00;99.90;;;;;;4990749;28;20046;-68
2022/01/29 00:49:56;;;;;;;40.33;17.63;;;3.00;99.90;;;;;;4990689;28;20481;-68
2022/01/29 00:52:24;;;;;;;36.58;16.70;;;3.10;99.90;;;;;;4990733;28;20046;-68
2022/01/29 00:54:51;;;;;;;33.30;16.83;;;3.10;99.90;;;;;;4990369;28;20050;-67
2022/01/29 00:57:19;;;;;;;31.27;16.27;;;3.10;99.90;;;;;;4988982;28;20089;-67
2022/01/29 00:59:47;;;;;;;33.63;16.67;;;3.10;99.90;;;;;;4988698;28;20109;-67
2022/01/29 01:02:14;;;;;;;33.05;17.13;;;3.10;99.90;;;;;;4988923;28;20393;-67
2022/01/29 01:04:42;;;;;;;29.85;16.30;;;3.10;99.90;;;;;;4990209;28;20051;-68
2022/01/29 01:07:10;;;;;;;35.08;18.15;;;3.10;99.90;;;;;;4988713;28;20066;-68
2022/01/29 01:09:38;;;;;;;31.95;16.70;;;3.10;99.90;;;;;;4987513;28;20077;-68
2022/01/29 01:12:07;;;;;;;32.47;15.85;;;3.10;99.90;;;;;;4988966;28;20042;-68
2022/01/29 01:14:36;;;;;;;30.70;16.02;;;3.20;99.90;;;;;;4988134;28;20057;-68
2022/01/29 01:17:05;;;;;;;33.25;16.27;;;3.10;99.90;;;;;;4987774;28;20054;-68
2022/01/29 01:19:33;;;;;;;34.28;17.05;;;3.10;99.90;;;;;;4990536;28;20046;-68
2022/01/29 01:22:04;;;;;;;31.67;16.60;;;3.10;99.90;;;;;;5007790;28;20057;-68
2022/01/29 01:24:32;;;;;;;32.20;15.77;;;3.20;99.90;;;;;;4992403;28;20102;-68
2022/01/29 01:27:00;;;;;;;30.58;15.98;;;3.20;99.90;;;;;;5004668;28;20473;-67
2022/01/29 01:29:28;;;;;;;28.17;16.10;;;3.30;99.90;;;;;;4993346;28;20088;-66
2022/01/29 01:31:56;;;;;;;32.75;15.90;;;3.30;99.90;;;;;;4999520;28;20047;-68
2022/01/29 01:34:28;;;;;;;28.55;16.70;;;3.30;99.90;;;;;;4991822;28;20359;-66
2022/01/29 01:37:05;;;;;;;27.48;15.45;;;3.30;99.90;;;;;;4992619;28;20088;-68
2022/01/29 01:39:36;;;;;;;32.05;16.30;;;3.20;99.90;;;;;;4981419;28;20552;-67
2022/01/29 01:42:06;;;;;;;27.33;14.87;;;3.20;99.90;;;;;;4993034;28;20042;-67
2022/01/29 01:44:40;;;;;;;32.05;16.38;;;3.30;99.90;;;;;;4993218;28;20788;-67
2022/01/29 01:47:08;;;;;;;27.10;14.77;;;3.20;99.90;;;;;;4983027;28;20150;-68
2022/01/29 01:49:37;;;;;;;29.55;16.13;;;3.20;99.90;;;;;;4976309;28;20046;-67
2022/01/29 01:52:08;;;;;;;30.52;15.00;;;3.20;99.90;;;;;;4992917;28;20042;-67
2022/01/29 01:54:37;;;;;;;30.00;15.40;;;3.20;99.90;;;;;;4993430;28;20070;-69
2022/01/29 01:57:05;;;;;;;29.95;14.73;;;3.20;99.90;;;;;;4992619;28;20042;-67
2022/01/29 01:59:34;;;;;;;31.42;15.18;;;3.20;99.90;;;;;;4993074;28;20058;-68
2022/01/29 02:02:02;;;;;;;34.15;15.50;;;3.10;99.90;;;;;;4991738;28;20406;-68
2022/01/29 02:04:33;;;;;;;32.60;15.63;;;3.20;99.90;;;;;;4992674;28;20417;-67
2022/01/29 02:07:04;;;;;;;33.33;16.55;;;3.20;99.90;;;;;;4990990;28;20039;-67
2022/01/29 02:09:33;;;;;;;35.17;14.68;;;3.20;99.90;;;;;;4993287;28;20104;-68
2022/01/29 02:12:03;;;;;;;27.98;14.63;;;3.20;99.90;;;;;;4993188;28;20497;-67
2022/01/29 02:14:33;;;;;;;30.15;16.15;;;3.20;99.90;;;;;;4993339;28;20046;-67
2022/01/29 02:17:03;;;;;;;27.05;14.13;;;3.20;99.90;;;;;;4994462;28;20402;-67
2022/01/29 02:19:32;;;;;;;30.33;14.18;;;3.20;99.90;;;;;;4992132;28;20046;-67
2022/01/29 02:22:00;;;;;;;29.42;15.02;;;3.20;99.90;;;;;;4993154;28;20558;-67
2022/01/29 02:24:27;;;;;;;32.47;16.13;;;3.10;99.90;;;;;;4992913;28;20545;-68
2022/01/29 02:26:55;;;;;;;27.45;14.20;;;3.10;99.90;;;;;;4992549;28;20450;-66
2022/01/29 02:29:23;;;;;;;27.02;14.93;;;3.20;99.90;;;;;;4992736;28;20058;-67
2022/01/29 02:31:57;;;;;;;28.08;14.77;;;3.10;99.90;;;;;;4983770;28;20058;-67
2022/01/29 02:34:25;;;;;;;29.85;15.00;;;3.10;99.90;;;;;;4990760;28;20053;-67
2022/01/29 02:36:55;;;;;;;31.17;14.27;;;3.10;99.90;;;;;;4992401;28;20381;-66
2022/01/29 02:39:23;;;;;;;31.38;16.60;;;3.10;99.90;;;;;;4992148;28;20089;-67
2022/01/29 02:41:51;;;;;;;32.70;14.48;;;3.10;99.90;;;;;;4992410;28;20062;-67
2022/01/29 02:44:22;;;;;;;34.83;15.77;;;3.10;99.90;;;;;;5004019;28;20054;-66
2022/01/29 02:46:53;;;;;;;30.08;15.93;;;3.10;99.90;;;;;;4990595;28;20062;-66
2022/01/29 02:49:25;;;;;;;32.80;15.23;;;3.10;99.90;;;;;;4991961;28;20125;-67
2022/01/29 02:51:58;;;;;;;29.77;13.82;;;3.20;99.90;;;;;;4990089;28;20034;-67
2022/01/29 02:54:26;;;;;;;;;;;3.10;99.90;;;;;;4992293;28;20046;-67
2022/01/29 02:56:54;;;;;;;30.40;13.90;;;3.20;99.90;;;;;;4991145;28;20411;-67
2022/01/29 02:59:22;;;;;;;28.90;13.57;;;3.10;99.90;;;;;;4991312;28;20061;-66
2022/01/29 03:01:50;;;;;;;29.92;13.93;;;3.10;99.90;;;;;;4990923;28;20054;-66
2022/01/29 03:04:17;;;;;;;26.98;13.38;;;3.10;99.90;;;;;;4990034;28;20089;-66
2022/01/29 03:06:46;;;;;;;23.98;13.43;;;3.10;99.90;;;;;;4990831;28;20129;-67
2022/01/29 03:09:13;;;;;;;29.40;13.27;;;3.10;99.90;;;;;;4991420;28;20485;-67
2022/01/29 03:11:41;;;;;;;28.85;13.45;;;3.10;99.90;;;;;;4991619;28;20072;-69
2022/01/29 03:14:08;;;;;;;28.55;13.23;;;3.10;99.90;;;;;;4990655;28;20493;-67
2022/01/29 03:16:35;;;;;;;26.10;13.65;;;3.10;99.90;;;;;;4990209;28;20047;-68
2022/01/29 03:19:03;;;;;;;28.88;12.85;;;3.10;99.90;;;;;;4990996;28;20089;-67
2022/01/29 03:21:30;;;;;;;24.88;11.98;;;3.10;99.90;;;;;;4980182;28;20073;-67
2022/01/29 03:23:57;;;;;;;24.17;12.75;;;3.10;99.90;;;;;;4980621;28;20390;-66
2022/01/29 03:26:25;;;;;;;26.40;12.52;;;3.20;99.90;;;;;;4996690;28;20077;-67
2022/01/29 03:28:52;;;;;;;24.70;13.13;;;3.20;99.90;;;;;;4989214;28;20046;-67
2022/01/29 03:31:20;;;;;;;21.60;12.02;;;3.20;99.90;;;;;;4989496;28;20592;-66
2022/01/29 03:33:47;;;;;;;28.60;13.20;;;3.20;99.90;;;;;;4987926;28;20596;-66
2022/01/29 03:36:15;;;;;;;25.90;12.20;;;3.10;99.90;;;;;;4986203;28;20525;-67
2022/01/29 03:38:42;;;;;;;27.10;12.50;;;3.10;99.90;;;;;;4985062;28;20075;-68
2022/01/29 03:41:11;;;;;;;21.77;11.95;;;3.10;99.90;;;;;;4989572;28;20346;-66
2022/01/29 03:43:48;;;;;;;21.92;12.20;;;3.10;99.90;;;;;;4989553;28;20053;-67
2022/01/29 03:46:15;;;;;;;22.65;11.70;;;3.20;99.90;;;;;;4989186;28;20577;-68
2022/01/29 03:48:42;;;;;;;23.45;12.05;;;3.20;99.90;;;;;;4984926;28;20061;-67
2022/01/29 03:51:10;;;;;;;26.98;12.30;;;3.20;99.90;;;;;;4983517;28;20121;-67
2022/01/29 03:53:37;;;;;;;24.98;11.48;;;3.20;99.90;;;;;;4982344;28;20043;-67
2022/01/29 03:56:05;;;;;;;19.38;10.98;;;3.20;99.90;;;;;;4984290;28;20093;-67
2022/01/29 03:58:32;;;;;;;21.20;10.82;;;3.20;99.90;;;;;;4986038;28;20418;-67
2022/01/29 04:00:59;;;;;;;23.15;11.80;;;3.20;99.90;;;;;;4986769;28;20099;-67
2022/01/29 04:03:26;;;;;;;25.92;12.05;;;3.20;99.90;;;;;;4985405;28;20054;-67
2022/01/29 04:05:54;;;;;;;22.55;10.85;;;3.20;99.90;;;;;;4975263;28;20149;-66
2022/01/29 04:08:23;;;;;;;22.17;10.23;;;3.20;99.90;;;;;;4987036;28;20077;-67
2022/01/29 04:10:51;;;;;;;25.25;12.13;;;3.20;99.90;;;;;;4989244;28;20145;-67
2022/01/29 04:13:24;;;;;;;20.17;11.13;;;3.30;99.90;;;;;;4988931;28;20053;-67
2022/01/29 04:15:51;;;;;;;24.02;11.40;;;3.20;99.90;;;;;;4982742;28;20062;-66
2022/01/29 04:18:19;;;;;;;21.50;10.80;;;3.20;99.90;;;;;;4981450;28;20042;-68
2022/01/29 04:20:46;;;;;;;21.40;10.88;;;3.20;99.90;;;;;;5003897;28;20121;-65
2022/01/29 04:23:13;;;;;;;21.33;10.98;;;3.10;99.90;;;;;;4989486;28;20073;-66
2022/01/29 04:25:41;;;;;;;22.58;11.70;;;3.10;99.90;;;;;;4988987;28;20120;-66
2022/01/29 04:28:13;;;;;;;24.92;11.30;;;3.10;99.90;;;;;;4987609;28;20065;-67
2022/01/29 04:30:47;;;;;;;22.83;11.50;;;3.20;99.90;;;;;;4989122;28;20054;-68
2022/01/29 04:35:45;;;;;;;23.38;11.57;;;3.10;99.90;;;;;;4989616;28;20425;-66
2022/01/29 04:38:12;;;;;;;21.10;11.15;;;3.10;99.90;;;;;;4988495;28;20070;-66
2022/01/29 04:40:39;;;;;;;21.70;10.85;;;3.10;99.90;;;;;;4987827;28;20050;-66
2022/01/29 04:43:07;;;;;;;19.98;11.07;;;3.10;99.90;;;;;;4988587;28;20038;-67
2022/01/29 04:45:34;;;;;;;25.08;11.15;;;3.10;99.90;;;;;;4988199;28;20046;-67
2022/01/29 04:48:02;;;;;;;21.77;11.82;;;3.10;99.90;;;;;;4988996;28;20069;-67
2022/01/29 04:50:30;;;;;;;21.50;11.15;;;3.10;99.90;;;;;;4995116;28;20061;-67
2022/01/29 04:52:57;;;;;;;23.45;11.70;;;3.10;99.90;;;;;;4988387;28;20132;-67
2022/01/29 04:55:25;;;;;;;26.58;11.57;;;3.00;99.90;;;;;;4991256;28;20057;-67
2022/01/29 04:57:52;;;;;;;22.42;12.02;;;3.00;99.90;;;;;;4993292;28;20038;-67
2022/01/29 05:00:20;;;;;;;24.02;13.05;;;3.00;99.90;;;;;;4991682;28;20054;-67
2022/01/29 05:03:04;;;;;;;22.45;12.38;;;3.00;99.90;;;;;;4992849;28;20070;-66
2022/01/29 05:05:32;;;;;;;28.75;12.57;;;3.00;99.90;;;;;;4991942;28;20046;-67
2022/01/29 05:07:59;;;;;;;28.27;13.18;;;3.10;99.90;;;;;;4991615;28;20133;-67
2022/01/29 05:10:27;;;;;;;25.48;13.82;;;3.00;99.90;;;;;;4986580;28;20743;-67
2022/01/29 05:13:00;;;;;;;27.48;13.40;;;3.00;99.90;;;;;;4992135;28;20237;-67
2022/01/29 05:29:09;;;;;;;30.60;15.88;;;3.00;99.90;;;;;;4986764;28;20042;-66
2022/01/29 05:31:37;;;;;;;28.17;14.45;;;2.90;99.90;;;;;;4991280;28;20043;-66
2022/01/29 05:34:05;;;;;;;25.08;14.35;;;2.90;99.90;;;;;;4991164;28;20060;-66
2022/01/29 05:36:33;;;;;;;30.83;16.08;;;2.90;99.90;;;;;;4979096;28;20152;-66
2022/01/29 05:39:00;;;;;;;28.55;15.35;;;3.00;99.90;;;;;;5006225;28;20069;-65
2022/01/29 05:41:30;;;;;;;32.35;16.75;;;3.00;99.90;;;;;;4991061;28;20056;-66
2022/01/29 05:43:58;;;;;;;32.67;16.45;;;3.00;99.90;;;;;;4992620;28;20681;-67
2022/01/29 05:46:26;;;;;;;27.25;15.10;;;3.00;99.90;;;;;;4991564;28;20042;-67
2022/01/29 05:48:53;;;;;;;27.35;15.65;;;2.90;99.90;;;;;;4992452;28;20065;-66
2022/01/29 05:51:20;;;;;;;28.15;14.98;;;2.90;99.90;;;;;;4991649;28;20042;-67
2022/01/29 05:53:47;;;;;;;27.15;16.75;;;2.90;99.90;;;;;;4992884;28;20045;-66
2022/01/29 05:56:14;;;;;;;31.60;15.30;;;2.90;99.90;;;;;;4989365;28;20581;-66
2022/01/29 05:58:42;;;;;;;29.13;16.00;;;3.00;99.90;;;;;;4991300;28;20047;-66
2022/01/29 06:01:09;;;;;;;29.15;16.50;;;3.00;99.90;;;;;;4984854;28;20054;-66
2022/01/29 06:03:37;;;;;;;31.33;15.25;;;3.00;99.90;;;;;;4990091;28;20051;-66
2022/01/29 06:06:04;;;;;;;31.17;15.07;;;3.00;99.90;;;;;;4989685;28;20460;-66
2022/01/29 06:08:31;;;;;;;28.35;15.27;;;3.10;99.90;;;;;;4989159;28;20137;-66
2022/01/29 06:11:00;;;;;;;27.00;14.85;;;3.10;99.90;;;;;;4987165;28;20486;-66
2022/01/29 06:13:27;;;;;;;27.23;14.60;;;3.00;99.90;;;;;;4990526;28;20047;-66
2022/01/29 06:15:54;;;;;;;28.85;14.77;;;3.00;99.90;;;;;;4992169;28;20042;-65
2022/01/29 06:18:24;;;;;;;27.58;14.15;;;3.00;99.90;;;;;;4992374;28;20512;-66
2022/01/29 06:20:54;;;;;;;30.52;14.77;;;3.00;99.90;;;;;;4992485;28;20713;-66
2022/01/29 06:23:29;;;;;;;31.83;14.95;;;2.90;99.90;;;;;;4992631;28;20046;-66
2022/01/29 06:26:01;;;;;;;32.17;14.98;;;3.00;99.90;;;;;;4992319;28;20046;-67
2022/01/29 06:28:29;;;;;;;27.98;14.73;;;3.00;99.90;;;;;;4991994;28;20152;-67
2022/01/29 06:30:56;;;;;;;28.58;15.23;;;2.90;99.90;;;;;;4990387;28;20712;-66
2022/01/29 06:33:23;;;;;;;29.67;15.38;;;2.90;99.90;;;;;;4987400;28;20038;-68
2022/01/29 06:35:51;;;;;;;28.27;15.68;;;3.00;99.90;;;;;;4989771;28;20046;-67
2022/01/29 06:38:18;;;;;;;28.08;15.25;;;3.00;99.90;;;;;;4989467;28;20045;-69
2022/01/29 06:40:45;;;;;;;32.15;14.98;;;3.00;99.90;;;;;;4992549;28;20062;-68
2022/01/29 06:43:13;;;;;;;34.30;16.17;;;3.00;99.90;;;;;;4991484;28;20046;-68
2022/01/29 06:45:42;;;;;;;32.67;15.18;;;2.90;99.90;;;;;;4992085;28;20050;-67
2022/01/29 06:48:10;;;;;;;28.63;15.30;;;2.90;99.90;;;;;;4989244;28;20049;-66
2022/01/29 06:50:38;;;;;;;32.15;15.70;;;3.00;99.90;;;;;;4990940;28;20398;-66
2022/01/29 06:53:06;;;;;;;30.02;16.75;;;3.00;99.90;;;;;;4990681;28;20484;-68
2022/01/29 06:55:34;;;;;;;33.22;16.25;;;3.00;99.90;;;;;;4991675;28;20043;-67
2022/01/29 06:58:02;;;;;;;31.10;16.10;;;3.00;99.90;;;;;;4990741;28;20200;-66
2022/01/29 07:00:49;;;;;;;30.40;16.92;;;3.10;99.90;;;;;;4987297;28;20097;-66
2022/01/29 07:03:17;;;;;;;32.95;16.40;;;3.00;99.90;;;;;;4973684;28;20129;-67
2022/01/29 07:05:44;;;;;;;31.73;16.05;;;3.00;99.90;;;;;;4988337;28;20046;-67
2022/01/29 07:08:12;;;;;;;32.53;16.67;;;3.00;99.90;;;;;;4990886;28;20050;-67
2022/01/29 07:10:39;;;;;;;31.10;16.85;;;3.10;99.90;;;;;;4989751;28;20038;-67
2022/01/29 07:13:07;;;;;;;34.25;16.30;;;3.00;99.90;;;;;;4992253;28;20511;-66
2022/01/29 07:15:37;;;;;;;33.25;16.83;;;3.10;99.90;;;;;;4989937;28;20085;-67
2022/01/29 07:18:05;;;;;;;32.15;17.00;;;3.00;99.90;;;;;;4989632;28;20125;-66
2022/01/29 07:20:33;;;;;;;37.20;17.27;;;3.00;99.90;;;;;;4990250;28;20137;-66
2022/01/29 07:23:00;;;;;;;34.53;17.08;;;3.10;99.90;;;;;;5001046;28;20047;-66
2022/01/29 07:25:27;;;;;;;32.58;18.35;;;3.10;99.90;;;;;;4993631;28;20499;-66
2022/01/29 07:27:54;;;;;;;35.25;17.42;;;3.10;99.90;;;;;;4988903;28;20113;-66
2022/01/29 07:30:22;;;;;;;32.42;18.02;;;3.00;99.90;;;;;;4990717;28;20042;-67
2022/01/29 07:32:49;;;;;;;30.20;16.73;;;3.10;99.90;;;;;;4991896;28;20513;-67
2022/01/29 07:35:17;;;;;;;36.50;18.70;;;3.10;99.90;;;;;;4994194;28;20061;-67
2022/01/29 07:37:49;;;;;;;33.05;17.00;;;3.10;99.90;;;;;;4991909;28;20141;-67
2022/01/29 07:40:17;;;;;;;32.17;17.27;;;3.10;99.90;;;;;;4999805;28;20046;-67
2022/01/29 07:42:44;;;;;;;32.58;16.98;;;3.20;99.90;;;;;;4989751;28;20081;-67
2022/01/29 07:45:12;;;;;;;34.50;18.75;;;3.10;99.90;;;;;;4990572;28;20428;-67
2022/01/29 07:47:39;;;;;;;37.65;17.80;;;3.20;99.90;;;;;;4987589;28;20050;-67
2022/01/29 07:50:06;;;;;;;33.60;17.92;;;3.10;99.90;;;;;;4989334;28;20054;-67
2022/01/29 07:52:34;;;;;;;34.03;18.27;;;3.10;99.90;;;;;;4991129;28;20049;-67
2022/01/29 07:55:10;;;;;;;36.90;17.85;;;3.10;99.90;;;;;;4989539;28;20043;-66
2022/01/29 07:57:37;;;;;;;34.50;17.08;;;3.00;99.90;;;;;;4990338;28;20072;-66
2022/01/29 08:00:05;;;;;;;;;;;3.10;99.90;;;;;;4991456;28;20607;-66
2022/01/29 08:02:39;;;;;;;;;;;3.10;99.90;;;;;;4990619;28;20392;-66
2022/01/29 08:05:07;;;;;;;31.47;16.60;;;3.10;99.90;;;;;;4990372;28;20012;-66
2022/01/29 08:07:35;;;;;;;32.95;17.70;;;3.00;99.90;;;;;;4989630;28;20504;-67
2022/01/29 08:10:03;;;;;;;31.52;16.77;;;3.00;99.90;;;;;;4990111;28;20045;-66
2022/01/29 08:12:30;;;;;;;;;;;3.10;99.90;;;;;;5006601;28;20073;-67
2022/01/29 08:14:57;;;;;;;;;;;3.20;99.90;;;;;;4990508;28;19929;-67
2022/01/29 08:17:24;;;;;;;35.10;18.10;;;3.10;99.90;;;;;;4988455;28;20392;-68
2022/01/29 08:19:51;;;;;;;30.30;16.50;;;3.10;99.90;;;;;;4989547;28;20539;-67
2022/01/29 08:22:19;;;;;;;34.58;18.30;;;3.10;99.90;;;;;;4987239;28;20138;-66
2022/01/29 08:24:46;;;;;;;31.77;17.45;;;3.10;99.90;;;;;;4992644;28;20117;-66
2022/01/29 08:27:13;;;;;;;29.95;17.35;;;3.10;99.90;;;;;;4989011;28;20143;-66
2022/01/29 08:29:41;;;;;;;36.55;17.90;;;3.10;99.90;;;;;;4988252;28;20042;-66
2022/01/29 08:32:08;;;;;;;34.28;16.88;;;3.10;99.90;;;;;;4989255;28;20045;-65
2022/01/29 08:34:35;;;;;;;29.75;15.65;;;3.10;99.90;;;;;;4987505;28;20048;-66
2022/01/29 08:37:04;;;;;;;30.80;16.58;;;3.10;99.90;;;;;;4988977;28;20050;-66
2022/01/29 08:39:32;;;;;;;29.42;15.75;;;3.20;99.90;;;;;;4988553;28;20446;-67
2022/01/29 08:42:00;;;;;;;32.00;16.92;;;3.10;99.90;;;;;;4991317;28;20057;-67
2022/01/29 08:44:27;;;;;;;28.25;14.65;;;3.10;99.90;;;;;;4989677;28;20058;-67
2022/01/29 08:46:55;;;;;;;25.52;14.27;;;3.20;99.90;;;;;;4988872;28;20093;-69
2022/01/29 08:49:22;;;;;;;28.63;15.32;;;3.20;99.90;;;;;;4988541;28;20085;-68
2022/01/29 08:51:49;;;;;;;25.38;14.27;;;3.20;99.90;;;;;;4984788;28;20137;-67
2022/01/29 08:54:16;;;;;;;30.35;15.23;;;3.20;99.90;;;;;;4986758;28;20050;-68
2022/01/29 08:56:44;;;;;;;25.10;13.27;;;3.20;99.90;;;;;;4988734;28;20042;-69
2022/01/29 08:59:11;;;;;;;26.95;13.23;;;3.20;99.90;;;;;;5000936;28;20054;-68
2022/01/29 09:01:39;;;;;;;24.67;12.57;;;3.20;99.90;;;;;;4988600;28;20050;-67
2022/01/29 09:04:07;;;;;;;24.45;12.02;;;3.20;99.90;;;;;;4997028;28;20381;-68
2022/01/29 09:06:35;;;;;;;24.67;12.32;;;3.10;99.90;;;;;;4986874;28;20517;-68
2022/01/29 09:09:02;;;;;;;23.63;12.52;;;3.10;99.90;;;;;;4983523;28;20153;-68
2022/01/29 09:11:30;;;;;;;23.38;12.45;;;3.20;99.90;;;;;;4987414;28;20043;-68
2022/01/29 09:13:57;;;;;;;21.65;12.00;;;3.20;99.90;;;;;;4988477;28;20069;-67
2022/01/29 09:16:24;;;;;;;25.48;11.50;;;3.20;99.90;;;;;;4976908;28;20500;-68
2022/01/29 09:18:52;;;;;;;24.77;12.02;;;3.20;99.90;;;;;;4985873;28;20513;-69
2022/01/29 09:21:19;;;;;;;24.35;12.27;;;3.20;99.90;;;;;;4986499;28;20046;-68
2022/01/29 09:23:47;;;;;;;22.83;11.15;;;3.30;99.90;;;;;;4988569;28;20522;-68
2022/01/29 09:26:14;;;;;;;22.00;10.95;;;3.30;99.90;;;;;;4983082;28;20414;-68
2022/01/29 09:28:42;;;;;;;20.02;10.60;;;3.40;99.90;;;;;;4982689;28;20461;-67
2022/01/29 09:31:09;;;;;;;24.27;10.48;;;3.40;99.90;;;;;;4992538;28;20070;-68
2022/01/29 09:33:36;;;;;;;20.80;9.90;;;3.40;99.90;;;;;;4998260;28;20477;-68
2022/01/29 09:36:04;;;;;;;22.02;9.95;;;3.40;99.90;;;;;;4988494;28;20145;-68
2022/01/29 09:38:31;;;;;;;20.70;10.43;;;3.40;99.90;;;;;;4985904;28;20089;-68
2022/01/29 09:40:59;;;;;;;20.48;10.15;;;3.30;99.90;;;;;;4985709;28;20540;-67
2022/01/29 09:43:28;;;;;;;20.77;9.50;;;3.40;99.90;;;;;;4991110;28;20054;-68
2022/01/29 09:45:57;;;;;;;21.75;10.93;;;3.40;99.90;;;;;;4989712;28;20568;-68
2022/01/29 09:48:28;;;;;;;24.45;10.65;;;3.40;99.90;;;;;;5000118;28;20470;-69
2022/01/29 09:50:57;;;;;;;19.95;10.00;;;3.40;99.90;;;;;;4991700;28;20474;-67
2022/01/29 09:53:25;;;;;;;21.55;10.80;;;3.40;99.90;;;;;;4988628;28;20587;-67
2022/01/29 09:55:53;;;;;;;23.67;9.48;;;3.40;99.90;;;;;;4988851;28;20138;-67
2022/01/29 09:58:21;;;;;;;21.02;9.88;;;3.40;99.90;;;;;;4989891;28;20042;-68
2022/01/29 10:00:49;;;;;;;25.48;10.65;;;3.50;99.90;;;;;;4989856;28;20088;-68
2022/01/29 10:03:19;;;;;;;21.83;10.35;;;3.50;99.90;;;;;;4990146;28;20116;-67
2022/01/29 10:05:51;;;;;;;25.15;11.20;;;3.60;99.90;;;;;;4989392;28;20055;-68
2022/01/29 10:08:20;;;;;;;20.75;10.02;;;3.60;99.90;;;;;;4990605;28;20066;-68
2022/01/29 10:10:50;;;;;;;20.13;9.82;;;3.70;99.90;;;;;;4994876;28;20050;-68
2022/01/29 10:13:31;;;;;;;20.15;9.50;;;3.70;99.90;;;;;;4990232;28;20120;-68
2022/01/29 10:16:21;;;;;;;19.48;9.70;;;3.80;99.90;;;;;;4991555;28;20644;-68
2022/01/29 10:19:08;;;;;;;22.73;9.95;;;3.80;99.90;;;;;;4987360;28;20089;-68
2022/01/29 10:21:44;;;;;;;19.83;10.38;;;3.80;99.90;;;;;;4989900;28;20050;-69
2022/01/29 10:24:17;;;;;;;19.20;9.98;;;3.90;99.90;;;;;;4991210;28;20065;-68
2022/01/29 10:26:47;;;;;;;17.88;8.85;;;3.90;99.90;;;;;;4982240;28;20054;-69
2022/01/29 10:29:26;;;;;;;18.42;9.18;;;3.90;99.90;;;;;;4991651;28;20046;-68
2022/01/29 10:31:56;;;;;;;20.15;10.05;;;3.80;99.90;;;;;;4978355;28;20137;-69
2022/01/29 10:34:32;;;;;;;18.55;9.65;;;3.90;99.90;;;;;;4987045;28;20053;-68
2022/01/29 10:37:21;;;;;;;17.92;8.95;;;3.90;99.90;;;;;;5003728;28;20513;-68
2022/01/29 10:39:57;;;;;;;18.35;10.15;;;4.00;99.90;;;;;;4987692;28;20038;-68
2022/01/29 10:42:26;;;;;;;17.70;8.82;;;4.10;99.90;;;;;;4990443;28;20772;-68
2022/01/29 10:44:57;;;;;;;17.95;8.88;;;4.10;99.90;;;;;;4989816;28;20045;-68
2022/01/29 10:47:24;;;;;;;15.55;8.50;;;4.10;99.90;;;;;;4985863;28;20126;-68
2022/01/29 10:49:55;;;;;;;17.60;9.57;;;4.20;99.90;;;;;;4990951;28;20058;-68
2022/01/29 10:52:34;;;;;;;16.42;8.60;;;4.20;99.90;;;;;;4988715;28;20054;-67
2022/01/29 10:55:07;;;;;;;16.55;8.52;;;4.10;99.90;;;;;;4989917;28;20034;-68
2022/01/29 10:57:39;;;;;;;17.17;9.35;;;4.20;99.90;;;;;;4980392;28;20501;-67
2022/01/29 11:00:20;;;;;;;17.33;8.95;;;4.20;99.90;;;;;;4983593;28;20053;-68
2022/01/29 11:02:49;;;;;;;17.30;9.37;;;4.20;99.90;;;;;;4987490;28;21059;-68
2022/01/29 11:05:18;;;;;;;15.43;8.52;;;4.20;99.90;;;;;;4985612;28;20328;-68
2022/01/29 11:07:52;;;;;;;17.15;9.00;;;4.20;99.90;;;;;;4985488;28;20402;-67
2022/01/29 11:10:19;;;;;;;18.40;9.43;;;4.10;99.90;;;;;;4972056;28;20145;-68
2022/01/29 11:12:48;;;;;;;15.30;8.77;;;4.20;99.90;;;;;;4988320;28;20064;-68
2022/01/29 11:15:18;;;;;;;19.13;10.43;;;4.20;99.90;;;;;;4994242;28;20449;-67
2022/01/29 11:17:48;;;;;;;16.95;8.93;;;4.20;99.90;;;;;;4987933;28;20084;-68
2022/01/29 11:20:16;;;;;;;18.27;9.85;;;4.20;99.90;;;;;;4988990;28;20050;-68
2022/01/29 11:22:48;;;;;;;18.20;9.05;;;4.30;99.90;;;;;;4987954;28;20052;-68
2022/01/29 11:25:21;;;;;;;16.20;8.93;;;4.30;99.90;;;;;;4988980;28;20042;-67
2022/01/29 11:28:18;;;;;;;15.43;8.63;;;4.30;99.90;;;;;;4956030;28;20064;-68
2022/01/29 11:31:06;;;;;;;14.88;8.85;;;4.30;99.90;;;;;;4986909;28;20097;-68
2022/01/29 11:33:54;;;;;;;14.18;7.75;;;4.30;99.90;;;;;;4989522;28;20038;-67
2022/01/29 11:36:21;;;;;;;15.20;8.13;;;4.30;99.90;;;;;;4978452;28;20461;-68
2022/01/29 11:38:48;;;;;;;15.35;8.43;;;4.40;99.90;;;;;;4989766;28;20413;-67
2022/01/29 11:41:15;;;;;;;13.65;8.38;;;4.30;99.90;;;;;;4989861;28;20050;-68
2022/01/29 11:43:42;;;;;;;12.68;7.68;;;4.40;99.90;;;;;;4989599;28;20054;-67
2022/01/29 11:46:31;;;;;;;14.10;6.90;;;4.40;99.90;;;;;;4990378;28;20397;-67
2022/01/29 11:49:17;;;;;;;13.50;7.05;;;4.40;99.90;;;;;;4985265;28;20065;-67
2022/01/29 11:51:49;;;;;;;14.20;7.18;;;4.50;99.90;;;;;;4995301;28;20054;-67
2022/01/29 11:54:28;;;;;;;13.40;6.82;;;4.60;99.90;;;;;;4988967;28;20042;-67
2022/01/29 11:57:08;;;;;;;15.07;8.38;;;4.50;99.90;;;;;;4995394;28;20109;-68
2022/01/29 11:59:35;;;;;;;13.43;7.68;;;4.60;99.90;;;;;;4989206;28;20097;-68
2022/01/29 12:02:14;;;;;;;10.73;6.72;;;4.50;99.90;;;;;;4989128;28;20488;-68
2022/01/29 12:04:49;;;;;;;10.95;6.40;;;4.60;99.90;;;;;;4995709;28;20061;-68
2022/01/29 12:07:32;;;;;;;13.15;6.53;;;4.70;99.90;;;;;;4989597;28;20046;-68
2022/01/29 12:10:24;;;;;;;10.13;5.88;;;4.70;99.90;;;;;;4992479;28;20042;-68
2022/01/29 12:13:09;;;;;;;12.40;6.57;;;4.70;99.90;;;;;;4985345;28;20070;-69
2022/01/29 12:15:37;;;;;;;10.38;5.60;;;4.80;99.90;;;;;;4990988;28;20061;-66
2022/01/29 12:18:25;;;;;;;10.75;5.63;;;4.80;99.90;;;;;;4989040;28;20461;-68
2022/01/29 12:20:53;;;;;;;11.02;6.03;;;4.80;99.90;;;;;;4987433;28;20409;-68
2022/01/29 12:23:20;;;;;;;10.80;6.85;;;4.60;99.90;;;;;;4989169;28;20050;-68
2022/01/29 12:25:59;;;;;;;12.18;6.55;;;4.70;99.90;;;;;;4987986;28;20061;-67
2022/01/29 12:28:26;;;;;;;11.90;6.28;;;4.80;99.90;;;;;;4980856;28;20050;-67
2022/01/29 12:30:54;;;;;;;8.85;5.30;;;4.80;99.90;;;;;;4985813;28;20034;-67
2022/01/29 12:33:24;;;;;;;10.18;6.55;;;4.80;99.90;;;;;;4986211;28;20116;-68
2022/01/29 12:35:58;;;;;;;10.52;5.72;;;4.80;99.90;;;;;;4983981;28;20425;-68
2022/01/29 12:38:34;;;;;;;9.57;5.50;;;4.70;99.90;;;;;;5001903;28;20122;-66
2022/01/29 12:41:11;;;;;;;10.68;5.43;;;4.80;99.90;;;;;;4984676;28;20058;-69
2022/01/29 12:43:58;;;;;;;10.27;5.60;;;4.70;99.90;;;;;;4990912;28;20525;-68
2022/01/29 12:46:28;;;;;;;8.55;4.65;;;4.70;99.90;;;;;;4985564;28;20043;-68
2022/01/29 12:49:13;;;;;;;9.43;5.15;;;4.80;99.90;;;;;;4981677;28;20046;-67
2022/01/29 12:52:13;;;;;;;8.50;5.28;;;4.80;99.90;;;;;;4987989;28;20038;-68
2022/01/29 12:54:49;;;;;;;8.95;5.32;;;4.90;99.90;;;;;;4982579;28;20537;-67
2022/01/29 12:57:17;;;;;;;8.43;5.10;;;4.80;99.90;;;;;;4986508;28;20081;-67
2022/01/29 12:59:44;;;;;;;9.45;4.97;;;4.80;99.90;;;;;;5002250;28;20397;-67
2022/01/29 13:02:31;;;;;;;9.93;5.18;;;4.80;99.90;;;;;;4980492;28;20153;-68
2022/01/29 13:05:01;;;;;;;10.55;5.40;;;4.80;99.90;;;;;;4986341;28;20412;-65
2022/01/29 13:07:28;;;;;;;10.65;5.38;;;4.70;99.90;;;;;;4983361;28;20077;-66
2022/01/29 13:09:56;;;;;;;8.60;4.63;;;4.70;99.90;;;;;;4988001;28;20042;-67